Time,TemperatureF,DewpointF,PressureIn,WindDirection,WindDirectionDegrees,WindSpeedMPH,WindSpeedGustMPH,Humidity,HourlyPrecipIn,Conditions,Clouds,dailyrainin,SoftwareType,DateUTC
2013-07-24 00:00:00,56.4,50.0,29.87,North,9,0.0,8.0,79,0.00,,OVC120,0.03,VWS V14.00,2013-07-24 04:00:00,
2013-07-24 00:01:00,56.9,49.8,29.89,North,5,2.0,4.0,77,0.00,,FEW030,0.00,VWS V14.00,2013-07-24 04:01:00,
2013-07-24 00:02:00,56.9,49.8,29.89,North,5,2.0,4.0,77,0.00,,FEW030,0.00,VWS V14.00,2013-07-24 04:02:00,
2013-07-24 00:03:00,56.8,49.7,29.89,North,5,0.0,4.0,77,0.00,,FEW030,0.00,VWS V14.00,2013-07-24 04:03:00,
2013-07-24 00:08:00,56.6,49.8,29.90,NNE,24,0.0,5.0,78,0.00,,FEW030,0.00,VWS V14.00,2013-07-24 04:08:00,
2013-07-24 00:13:00,56.1,49.7,29.90,North,9,4.0,5.0,79,0.00,,FEW030,0.00,VWS V14.00,2013-07-24 04:13:00,
2013-07-24 00:18:00,55.8,49.7,29.90,North,9,0.0,5.0,80,0.00,,FEW030,0.00,VWS V14.00,2013-07-24 04:18:00,
2013-07-24 00:23:00,55.5,49.4,29.90,North,5,4.0,6.0,80,0.00,,FEW030,0.00,VWS V14.00,2013-07-24 04:23:00,
2013-07-24 00:28:00,55.3,49.6,29.91,NNE,26,0.0,6.0,81,0.00,,FEW030,0.00,VWS V14.00,2013-07-24 04:28:00,
2013-07-24 00:30:00,56.8,50.0,29.88,NNE,18,5.0,9.0,78,0.00,,OVC120,0.03,VWS V14.00,2013-07-24 04:30:00,
2013-07-24 00:33:00,55.1,49.4,29.91,North,9,1.0,6.0,81,0.00,,FEW030,0.00,VWS V14.00,2013-07-24 04:33:00,
2013-07-24 00:38:00,55.0,49.3,29.91,NNE,22,0.0,6.0,81,0.00,,FEW030,0.00,VWS V14.00,2013-07-24 04:38:00,
2013-07-24 00:43:00,54.9,49.5,29.91,NNE,21,0.0,6.0,82,0.00,,FEW030,0.00,VWS V14.00,2013-07-24 04:43:00,
2013-07-24 00:48:00,54.8,49.4,29.91,NNE,21,1.0,6.0,82,0.00,,FEW030,0.00,VWS V14.00,2013-07-24 04:48:00,
2013-07-24 00:53:00,54.6,49.2,29.91,NNE,22,0.0,6.0,82,0.00,,FEW030,0.00,VWS V14.00,2013-07-24 04:53:00,
2013-07-24 00:58:00,54.3,49.3,29.91,NNE,21,3.0,6.0,83,0.00,,FEW030,0.00,VWS V14.00,2013-07-24 04:58:00,
2013-07-24 01:00:00,57.0,49.9,29.89,North,355,2.0,10.0,77,0.00,,OVC120,0.00,VWS V14.00,2013-07-24 05:00:00,
2013-07-24 01:03:00,54.1,49.1,29.92,NNE,22,0.0,1.0,83,0.00,,BKN033,0.00,VWS V14.00,2013-07-24 05:03:00,
2013-07-24 01:08:00,53.8,49.1,29.92,NNE,22,0.0,1.0,84,0.00,,BKN033,0.00,VWS V14.00,2013-07-24 05:08:00,
2013-07-24 01:13:00,53.5,49.1,29.92,NNE,21,0.0,1.0,85,0.00,,BKN033,0.00,VWS V14.00,2013-07-24 05:13:00,
2013-07-24 01:18:00,53.2,49.1,29.92,NNE,22,0.0,1.0,86,0.00,,BKN033,0.00,VWS V14.00,2013-07-24 05:18:00,
2013-07-24 01:23:00,52.8,48.7,29.92,NNE,22,0.0,1.0,86,0.00,,BKN033,0.00,VWS V14.00,2013-07-24 05:23:00,
2013-07-24 01:28:00,52.4,48.7,29.92,NNE,22,0.0,1.0,87,0.00,,BKN033,0.00,VWS V14.00,2013-07-24 05:28:00,
2013-07-24 01:30:00,55.3,49.6,29.91,NNE,26,2.0,6.0,81,0.00,,OVC120,0.00,VWS V14.00,2013-07-24 05:30:00,
2013-07-24 01:33:00,52.1,48.7,29.93,NNE,22,0.0,0.0,88,0.00,,BKN033,0.00,VWS V14.00,2013-07-24 05:33:00,
2013-07-24 01:38:00,51.7,48.6,29.93,NNE,21,0.0,0.0,89,0.00,,BKN033,0.00,VWS V14.00,2013-07-24 05:38:00,
2013-07-24 01:43:00,51.4,48.3,29.93,NNE,22,0.0,0.0,89,0.00,,BKN033,0.00,VWS V14.00,2013-07-24 05:43:00,
2013-07-24 01:48:00,51.1,48.0,29.92,NNE,21,0.0,0.0,89,0.00,,BKN033,0.00,VWS V14.00,2013-07-24 05:48:00,
2013-07-24 01:53:00,50.9,48.1,29.93,NNE,22,0.0,0.0,90,0.00,,BKN033,0.00,VWS V14.00,2013-07-24 05:53:00,
2013-07-24 01:58:00,50.8,48.3,29.93,NNE,21,0.0,1.0,91,0.00,,BKN033,0.00,VWS V14.00,2013-07-24 05:58:00,
2013-07-24 02:00:00,54.2,49.2,29.92,NNE,22,0.0,6.0,83,0.00,,OVC120,0.00,VWS V14.00,2013-07-24 06:00:00,
2013-07-24 02:03:00,50.7,48.2,29.93,NNE,22,0.0,0.0,91,0.00,,CLR,0.00,VWS V14.00,2013-07-24 06:03:00,
2013-07-24 02:08:00,50.7,48.2,29.93,NNE,22,0.0,2.0,91,0.00,,CLR,0.00,VWS V14.00,2013-07-24 06:08:00,
2013-07-24 02:13:00,50.8,48.6,29.93,NNE,21,0.0,2.0,92,0.00,,CLR,0.00,VWS V14.00,2013-07-24 06:13:00,
2013-07-24 02:19:00,50.8,48.6,29.93,NNE,21,0.0,2.0,92,0.00,,CLR,0.00,VWS V14.00,2013-07-24 06:19:00,
2013-07-24 02:24:00,50.8,48.6,29.93,NNE,22,0.0,2.0,92,0.00,,CLR,0.00,VWS V14.00,2013-07-24 06:24:00,
2013-07-24 02:29:00,50.8,48.6,29.93,NNE,22,0.0,2.0,92,0.00,,CLR,0.00,VWS V14.00,2013-07-24 06:29:00,
2013-07-24 02:30:00,52.3,48.5,29.92,NNE,22,0.0,1.0,87,0.00,,OVC120,0.00,VWS V14.00,2013-07-24 06:30:00,
2013-07-24 02:34:00,50.7,48.5,29.92,NNE,22,0.0,3.0,92,0.00,,CLR,0.00,VWS V14.00,2013-07-24 06:34:00,
2013-07-24 02:39:00,50.7,48.5,29.92,NNE,21,0.0,3.0,92,0.00,,CLR,0.00,VWS V14.00,2013-07-24 06:39:00,
2013-07-24 02:44:00,50.7,48.5,29.92,NNE,21,0.0,3.0,92,0.00,,CLR,0.00,VWS V14.00,2013-07-24 06:44:00,
2013-07-24 02:49:00,50.6,48.4,29.92,NNE,21,0.0,3.0,92,0.00,,CLR,0.00,VWS V14.00,2013-07-24 06:49:00,
2013-07-24 02:54:00,50.4,48.2,29.92,NNE,21,0.0,3.0,92,0.00,,CLR,0.00,VWS V14.00,2013-07-24 06:54:00,
2013-07-24 02:59:00,50.1,47.9,29.92,NNE,21,0.0,3.0,92,0.00,,CLR,0.00,VWS V14.00,2013-07-24 06:59:00,
2013-07-24 03:00:00,50.8,48.3,29.93,NNE,22,0.0,1.0,91,0.00,,OVC120,0.00,VWS V14.00,2013-07-24 07:00:00,
2013-07-24 03:04:00,49.9,47.7,29.92,NNE,21,0.0,0.0,92,0.00,,CLR,0.00,VWS V14.00,2013-07-24 07:04:00,
2013-07-24 03:09:00,49.7,47.5,29.92,NNE,21,0.0,1.0,92,0.00,,CLR,0.00,VWS V14.00,2013-07-24 07:09:00,
2013-07-24 03:14:00,49.6,47.7,29.92,NNE,22,0.0,1.0,93,0.00,,CLR,0.00,VWS V14.00,2013-07-24 07:14:00,
2013-07-24 03:19:00,49.3,47.4,29.92,NNE,21,0.0,1.0,93,0.00,,CLR,0.00,VWS V14.00,2013-07-24 07:19:00,
2013-07-24 03:25:00,49.1,47.2,29.92,NNE,22,0.0,1.0,93,0.00,,CLR,0.00,VWS V14.00,2013-07-24 07:25:00,
2013-07-24 03:30:00,48.8,46.9,29.92,NNE,22,0.0,1.0,93,0.00,,CLR,0.00,VWS V14.00,2013-07-24 07:30:00,
2013-07-24 03:35:00,48.7,46.8,29.92,NNE,21,0.0,0.0,93,0.00,,CLR,0.00,VWS V14.00,2013-07-24 07:35:00,
2013-07-24 03:40:00,48.7,47.0,29.92,NNE,22,0.0,0.0,94,0.00,,CLR,0.00,VWS V14.00,2013-07-24 07:40:00,
2013-07-24 03:45:00,48.6,47.0,29.93,NNE,22,0.0,0.0,94,0.00,,CLR,0.00,VWS V14.00,2013-07-24 07:45:00,
2013-07-24 03:50:00,48.5,46.9,29.93,NNE,22,0.0,0.0,94,0.00,,CLR,0.00,VWS V14.00,2013-07-24 07:50:00,
2013-07-24 03:55:00,48.3,46.7,29.92,NNE,22,0.0,0.0,94,0.00,,CLR,0.00,VWS V14.00,2013-07-24 07:55:00,
2013-07-24 04:00:00,48.1,46.5,29.93,NNE,22,0.0,0.0,94,0.00,,CLR,0.00,VWS V14.00,2013-07-24 08:00:00,
2013-07-24 04:05:00,48.0,46.6,29.92,NNE,22,0.0,0.0,95,0.00,,CLR,0.00,VWS V14.00,2013-07-24 08:05:00,
2013-07-24 04:10:00,48.0,46.6,29.92,NNE,22,0.0,0.0,95,0.00,,CLR,0.00,VWS V14.00,2013-07-24 08:10:00,
2013-07-24 04:15:00,47.9,46.5,29.93,NNE,22,0.0,0.0,95,0.00,,CLR,0.00,VWS V14.00,2013-07-24 08:15:00,
2013-07-24 04:20:00,47.8,46.4,29.93,NNE,22,0.0,0.0,95,0.00,,CLR,0.00,VWS V14.00,2013-07-24 08:20:00,
2013-07-24 04:25:00,47.7,46.3,29.93,NNE,22,0.0,0.0,95,0.00,,CLR,0.00,VWS V14.00,2013-07-24 08:25:00,
2013-07-24 04:30:00,47.6,46.2,29.93,NNE,22,0.0,0.0,95,0.00,,CLR,0.00,VWS V14.00,2013-07-24 08:30:00,
2013-07-24 04:35:00,47.6,46.2,29.93,NNE,22,0.0,0.0,95,0.00,,CLR,0.00,VWS V14.00,2013-07-24 08:35:00,
2013-07-24 04:41:00,47.6,46.5,29.93,NNE,22,0.0,0.0,96,0.00,,CLR,0.00,VWS V14.00,2013-07-24 08:41:00,
2013-07-24 04:46:00,47.5,46.4,29.93,NNE,22,0.0,0.0,96,0.00,,CLR,0.00,VWS V14.00,2013-07-24 08:46:00,
2013-07-24 04:51:00,47.5,46.4,29.93,NNE,22,0.0,0.0,96,0.00,,CLR,0.00,VWS V14.00,2013-07-24 08:51:00,
2013-07-24 04:56:00,47.4,46.3,29.93,NNE,22,0.0,0.0,96,0.00,,CLR,0.00,VWS V14.00,2013-07-24 08:56:00,
2013-07-24 05:00:00,48.1,46.5,29.92,NNE,22,0.0,0.0,94,0.00,,OVC120,0.00,VWS V14.00,2013-07-24 09:00:00,
2013-07-24 05:01:00,47.3,46.2,29.94,NNE,22,0.0,0.0,96,0.00,,CLR,0.00,VWS V14.00,2013-07-24 09:01:00,
2013-07-24 05:06:00,47.1,46.0,29.94,NNE,22,0.0,0.0,96,0.00,,CLR,0.00,VWS V14.00,2013-07-24 09:06:00,
2013-07-24 05:11:00,47.1,46.0,29.94,NNE,22,0.0,0.0,96,0.00,,CLR,0.00,VWS V14.00,2013-07-24 09:11:00,
2013-07-24 05:16:00,47.1,46.0,29.94,NNE,22,0.0,0.0,96,0.00,,CLR,0.00,VWS V14.00,2013-07-24 09:16:00,
2013-07-24 05:21:00,47.1,46.0,29.94,NNE,21,0.0,0.0,96,0.00,,CLR,0.00,VWS V14.00,2013-07-24 09:21:00,
2013-07-24 05:26:00,47.1,46.0,29.94,NNE,22,0.0,0.0,96,0.00,,CLR,0.00,VWS V14.00,2013-07-24 09:26:00,
2013-07-24 05:30:00,47.6,46.2,29.93,NNE,21,0.0,0.0,95,0.00,,OVC120,0.00,VWS V14.00,2013-07-24 09:30:00,
2013-07-24 05:31:00,47.0,45.9,29.94,NNE,21,0.0,0.0,96,0.00,,CLR,0.00,VWS V14.00,2013-07-24 09:31:00,
2013-07-24 05:36:00,47.0,46.2,29.94,NNE,22,0.0,0.0,97,0.00,,CLR,0.00,VWS V14.00,2013-07-24 09:36:00,
2013-07-24 05:41:00,47.2,46.4,29.94,NNE,22,0.0,0.0,97,0.00,,CLR,0.00,VWS V14.00,2013-07-24 09:41:00,
2013-07-24 05:47:00,47.2,46.4,29.95,NNE,21,0.0,0.0,97,0.00,,CLR,0.00,VWS V14.00,2013-07-24 09:47:00,
2013-07-24 05:52:00,47.0,46.2,29.95,NNE,22,0.0,0.0,97,0.00,,CLR,0.00,VWS V14.00,2013-07-24 09:52:00,
2013-07-24 05:57:00,46.9,46.1,29.95,NNE,22,0.0,0.0,97,0.00,,CLR,0.00,VWS V14.00,2013-07-24 09:57:00,
2013-07-24 06:00:00,47.3,46.2,29.93,NNE,22,0.0,0.0,96,0.00,,OVC120,0.00,VWS V14.00,2013-07-24 10:00:00,
2013-07-24 06:02:00,46.7,45.9,29.96,NNE,22,0.0,0.0,97,0.00,,CLR,0.00,VWS V14.00,2013-07-24 10:02:00,
2013-07-24 06:07:00,46.6,45.8,29.96,NNE,25,0.0,0.0,97,0.00,,CLR,0.00,VWS V14.00,2013-07-24 10:07:00,
2013-07-24 06:12:00,46.5,45.7,29.96,NNW,333,0.0,0.0,97,0.00,,CLR,0.00,VWS V14.00,2013-07-24 10:12:00,
2013-07-24 06:17:00,46.4,45.6,29.97,NNW,333,0.0,0.0,97,0.00,,CLR,0.00,VWS V14.00,2013-07-24 10:17:00,
2013-07-24 06:22:00,46.5,45.7,29.97,NNW,333,0.0,0.0,97,0.00,,CLR,0.00,VWS V14.00,2013-07-24 10:22:00,
2013-07-24 06:27:00,46.4,45.6,29.97,NNW,333,0.0,0.0,97,0.00,,CLR,0.00,VWS V14.00,2013-07-24 10:27:00,
2013-07-24 06:30:00,47.1,46.0,29.94,NNE,22,0.0,0.0,96,0.00,,OVC120,0.00,VWS V14.00,2013-07-24 10:30:00,
2013-07-24 06:32:00,46.3,45.5,29.97,NNW,333,0.0,0.0,97,0.00,,CLR,0.00,VWS V14.00,2013-07-24 10:32:00,
2013-07-24 06:37:00,46.2,45.4,29.97,NNW,333,0.0,0.0,97,0.00,,CLR,0.00,VWS V14.00,2013-07-24 10:37:00,
2013-07-24 06:42:00,46.5,45.7,29.98,NNW,333,0.0,1.0,97,0.00,,CLR,0.00,VWS V14.00,2013-07-24 10:42:00,
2013-07-24 06:48:00,46.8,46.0,29.98,NNW,335,0.0,4.0,97,0.00,,CLR,0.00,VWS V14.00,2013-07-24 10:48:00,
2013-07-24 06:53:00,47.1,46.3,29.98,NNW,334,0.0,4.0,97,0.00,,CLR,0.00,VWS V14.00,2013-07-24 10:53:00,
2013-07-24 06:58:00,47.4,46.9,29.98,NNW,335,0.0,4.0,98,0.00,,CLR,0.00,VWS V14.00,2013-07-24 10:58:00,
2013-07-24 07:00:00,46.7,45.9,29.95,NNE,22,0.0,0.0,97,0.00,,OVC120,0.00,VWS V14.00,2013-07-24 11:00:00,
2013-07-24 07:03:00,47.6,46.8,29.98,NNW,344,2.0,3.0,97,0.00,,CLR,0.00,VWS V14.00,2013-07-24 11:03:00,
2013-07-24 07:08:00,47.9,47.1,29.97,NNW,346,0.0,3.0,97,0.00,,CLR,0.00,VWS V14.00,2013-07-24 11:08:00,
2013-07-24 07:13:00,48.2,47.7,29.98,North,350,0.0,3.0,98,0.00,,CLR,0.00,VWS V14.00,2013-07-24 11:13:00,
2013-07-24 07:18:00,48.7,48.2,29.98,North,351,1.0,3.0,98,0.00,,CLR,0.00,VWS V14.00,2013-07-24 11:18:00,
2013-07-24 07:23:00,49.2,48.7,29.97,North,9,0.0,4.0,98,0.00,,CLR,0.00,VWS V14.00,2013-07-24 11:23:00,
2013-07-24 07:28:00,49.6,49.1,29.97,North,10,0.0,4.0,98,0.00,,CLR,0.00,VWS V14.00,2013-07-24 11:28:00,
2013-07-24 07:30:00,46.3,45.5,29.97,NNW,333,0.0,0.0,97,0.00,,OVC120,0.00,VWS V14.00,2013-07-24 11:30:00,
2013-07-24 07:33:00,50.0,49.5,29.98,NNE,19,1.0,4.0,98,0.00,,CLR,0.00,VWS V14.00,2013-07-24 11:33:00,
2013-07-24 07:38:00,50.5,49.7,29.98,NNE,26,2.0,4.0,97,0.00,,CLR,0.00,VWS V14.00,2013-07-24 11:38:00,
2013-07-24 07:43:00,51.0,50.2,29.98,NNE,31,0.0,5.0,97,0.00,,CLR,0.00,VWS V14.00,2013-07-24 11:43:00,
2013-07-24 07:48:00,51.5,50.7,29.98,NNE,26,2.0,6.0,97,0.00,,CLR,0.00,VWS V14.00,2013-07-24 11:48:00,
2013-07-24 07:53:00,51.9,50.8,29.98,NNE,28,1.0,6.0,96,0.00,,CLR,0.00,VWS V14.00,2013-07-24 11:53:00,
2013-07-24 07:58:00,52.4,51.0,29.99,NNE,14,3.0,7.0,95,0.00,,CLR,0.00,VWS V14.00,2013-07-24 11:58:00,
2013-07-24 08:00:00,47.5,47.0,29.98,NNW,334,0.0,4.0,98,0.00,,OVC120,0.00,VWS V14.00,2013-07-24 12:00:00,
2013-07-24 08:04:00,52.8,51.1,29.99,North,360,3.0,5.0,94,0.00,,CLR,0.00,VWS V14.00,2013-07-24 12:04:00,
2013-07-24 08:09:00,53.1,50.8,29.99,North,360,2.0,7.0,92,0.00,,CLR,0.00,VWS V14.00,2013-07-24 12:09:00,
2013-07-24 08:14:00,53.6,51.0,29.99,NE,34,2.0,7.0,91,0.00,,CLR,0.00,VWS V14.00,2013-07-24 12:14:00,
2013-07-24 08:19:00,54.0,51.1,29.99,NE,34,3.0,7.0,90,0.00,,CLR,0.00,VWS V14.00,2013-07-24 12:19:00,
2013-07-24 08:24:00,54.4,51.2,29.99,North,360,1.0,7.0,89,0.00,,CLR,0.00,VWS V14.00,2013-07-24 12:24:00,
2013-07-24 08:29:00,54.9,51.4,29.99,NNE,32,0.0,7.0,88,0.00,,CLR,0.00,VWS V14.00,2013-07-24 12:29:00,
2013-07-24 08:30:00,49.7,49.2,29.97,North,11,3.0,4.0,98,0.00,,OVC120,0.00,VWS V14.00,2013-07-24 12:30:00,
2013-07-24 08:34:00,55.5,52.3,29.99,NNE,30,0.0,5.0,89,0.00,,CLR,0.00,VWS V14.00,2013-07-24 12:34:00,
2013-07-24 08:39:00,55.9,52.1,29.99,NE,51,4.0,5.0,87,0.00,,CLR,0.00,VWS V14.00,2013-07-24 12:39:00,
2013-07-24 08:44:00,56.3,52.2,30.00,North,9,0.0,7.0,86,0.00,,CLR,0.00,VWS V14.00,2013-07-24 12:44:00,
2013-07-24 08:49:00,56.7,52.2,30.00,North,360,0.0,7.0,85,0.00,,CLR,0.00,VWS V14.00,2013-07-24 12:49:00,
2013-07-24 08:54:00,57.1,52.3,30.00,NNE,30,1.0,7.0,84,0.00,,CLR,0.00,VWS V14.00,2013-07-24 12:54:00,
2013-07-24 08:59:00,57.3,52.2,30.00,NNW,345,5.0,7.0,83,0.00,,CLR,0.00,VWS V14.00,2013-07-24 12:59:00,
2013-07-24 09:00:00,52.5,51.1,29.99,NE,38,1.0,7.0,95,0.00,,OVC120,0.00,VWS V14.00,2013-07-24 13:00:00,
2013-07-24 09:04:00,57.4,52.0,30.00,NNE,16,2.0,8.0,82,0.00,,CLR,0.00,VWS V14.00,2013-07-24 13:04:00,
2013-07-24 09:09:00,57.8,52.3,30.00,NNE,20,3.0,8.0,82,0.00,,CLR,0.00,VWS V14.00,2013-07-24 13:09:00,
2013-07-24 09:15:00,58.0,52.2,30.00,NE,46,4.0,8.0,81,0.00,,CLR,0.00,VWS V14.00,2013-07-24 13:15:00,
2013-07-24 09:20:00,58.1,52.0,30.00,NNE,23,4.0,9.0,80,0.00,,CLR,0.00,VWS V14.00,2013-07-24 13:20:00,
2013-07-24 09:25:00,58.4,51.9,30.00,NNE,25,3.0,9.0,79,0.00,,CLR,0.00,VWS V14.00,2013-07-24 13:25:00,
2013-07-24 09:30:00,59.0,52.5,30.00,NNE,17,3.0,9.0,79,0.00,,CLR,0.00,VWS V14.00,2013-07-24 13:30:00,
2013-07-24 09:35:00,59.0,51.8,30.00,NNE,32,6.0,8.0,77,0.00,,FEW200,0.00,VWS V14.00,2013-07-24 13:35:00,
2013-07-24 09:40:00,59.0,51.8,30.00,North,349,6.0,10.0,77,0.00,,FEW200,0.00,VWS V14.00,2013-07-24 13:40:00,
2013-07-24 09:45:00,59.2,51.7,30.00,NE,41,2.0,10.0,76,0.00,,FEW200,0.00,VWS V14.00,2013-07-24 13:45:00,
2013-07-24 09:50:00,59.6,52.0,30.00,ENE,65,4.0,10.0,76,0.00,,FEW200,0.00,VWS V14.00,2013-07-24 13:50:00,
2013-07-24 09:55:00,59.5,51.6,30.00,NE,45,5.0,10.0,75,0.00,,FEW200,0.00,VWS V14.00,2013-07-24 13:55:00,
2013-07-24 10:00:00,59.6,52.0,30.01,NNE,17,3.0,5.0,76,0.00,,FEW200,0.00,VWS V14.00,2013-07-24 14:00:00,
2013-07-24 10:05:00,59.9,52.0,30.00,NE,40,4.0,9.0,75,0.00,,FEW200,0.00,VWS V14.00,2013-07-24 14:05:00,
2013-07-24 10:10:00,60.3,52.0,30.01,NNE,15,1.0,9.0,74,0.00,,FEW200,0.00,VWS V14.00,2013-07-24 14:10:00,
2013-07-24 10:16:00,60.5,51.8,30.01,NE,47,0.0,9.0,73,0.00,,FEW200,0.00,VWS V14.00,2013-07-24 14:16:00,
2013-07-24 10:21:00,60.7,52.4,30.01,ENE,61,3.0,9.0,74,0.00,,FEW200,0.00,VWS V14.00,2013-07-24 14:21:00,
2013-07-24 10:26:00,61.2,53.6,30.01,NE,56,7.0,9.0,76,0.00,,FEW200,0.00,VWS V14.00,2013-07-24 14:26:00,
2013-07-24 10:30:00,59.0,52.5,30.00,NNE,32,3.0,9.0,79,0.00,,OVC120,0.00,VWS V14.00,2013-07-24 14:30:00,
2013-07-24 10:31:00,61.6,52.9,30.01,North,360,6.0,8.0,73,0.00,,FEW200,0.00,VWS V14.00,2013-07-24 14:31:00,
2013-07-24 10:36:00,61.6,52.9,30.01,NE,53,2.0,8.0,73,0.00,,FEW200,0.00,VWS V14.00,2013-07-24 14:36:00,
2013-07-24 10:41:00,61.6,52.1,30.01,North,355,5.0,8.0,71,0.00,,FEW200,0.00,VWS V14.00,2013-07-24 14:41:00,
2013-07-24 10:47:00,61.7,53.3,30.01,NE,52,0.0,8.0,74,0.00,,FEW200,0.00,VWS V14.00,2013-07-24 14:47:00,
2013-07-24 10:52:00,62.1,53.0,30.01,NNE,29,3.0,8.0,72,0.00,,FEW200,0.00,VWS V14.00,2013-07-24 14:52:00,
2013-07-24 10:57:00,62.2,52.3,30.01,East,80,0.0,8.0,70,0.00,,FEW200,0.00,VWS V14.00,2013-07-24 14:57:00,
2013-07-24 11:00:00,59.6,52.0,30.01,NE,38,3.0,10.0,76,0.00,,OVC120,0.00,VWS V14.00,2013-07-24 15:00:00,
2013-07-24 11:02:00,62.3,52.0,30.02,ENE,58,4.0,7.0,69,0.00,,SCT220,0.00,VWS V14.00,2013-07-24 15:02:00,
2013-07-24 11:07:00,62.3,52.4,30.02,NNE,29,4.0,8.0,70,0.00,,SCT220,0.00,VWS V14.00,2013-07-24 15:07:00,
2013-07-24 11:12:00,62.6,53.1,30.02,North,360,5.0,8.0,71,0.00,,SCT220,0.00,VWS V14.00,2013-07-24 15:12:00,
2013-07-24 11:17:00,63.1,52.8,30.01,NE,34,0.0,8.0,69,0.00,,SCT220,0.00,VWS V14.00,2013-07-24 15:17:00,
2013-07-24 11:22:00,63.1,52.4,30.02,NE,53,1.0,8.0,68,0.00,,SCT220,0.00,VWS V14.00,2013-07-24 15:22:00,
2013-07-24 11:27:00,62.8,52.1,30.02,NNE,31,1.0,8.0,68,0.00,,SCT220,0.00,VWS V14.00,2013-07-24 15:27:00,
2013-07-24 11:30:00,61.5,52.8,30.01,NNE,26,4.0,9.0,73,0.00,,OVC120,0.00,VWS V14.00,2013-07-24 15:30:00,
2013-07-24 11:32:00,62.8,52.1,30.02,NNE,32,6.0,6.0,68,0.00,,SCT220,0.00,VWS V14.00,2013-07-24 15:32:00,
2013-07-24 11:37:00,62.7,51.6,30.02,NE,45,0.0,12.0,67,0.00,,SCT220,0.00,VWS V14.00,2013-07-24 15:37:00,
2013-07-24 11:42:00,62.9,53.4,30.02,NE,48,2.0,12.0,71,0.00,,SCT220,0.00,VWS V14.00,2013-07-24 15:42:00,
2013-07-24 11:47:00,63.5,53.5,30.02,NE,48,1.0,12.0,70,0.00,,SCT220,0.00,VWS V14.00,2013-07-24 15:47:00,
2013-07-24 11:52:00,64.2,53.4,30.02,NNE,26,3.0,12.0,68,0.00,,SCT220,0.00,VWS V14.00,2013-07-24 15:52:00,
2013-07-24 11:57:00,64.4,52.8,30.02,North,360,1.0,12.0,66,0.00,,SCT220,0.00,VWS V14.00,2013-07-24 15:57:00,
2013-07-24 12:00:00,62.3,52.4,30.01,ENE,67,5.0,8.0,70,0.00,,OVC120,0.00,VWS V14.00,2013-07-24 16:00:00,
2013-07-24 12:02:00,64.6,53.4,30.02,NNE,17,2.0,3.0,67,0.00,,SCT220,0.00,VWS V14.00,2013-07-24 16:02:00,
2013-07-24 12:08:00,65.0,53.8,30.02,ENE,69,0.0,8.0,67,0.00,,SCT220,0.00,VWS V14.00,2013-07-24 16:08:00,
2013-07-24 12:13:00,65.5,53.8,30.02,ENE,63,4.0,9.0,66,0.00,,SCT220,0.00,VWS V14.00,2013-07-24 16:13:00,
2013-07-24 12:18:00,65.5,54.3,30.02,NE,53,1.0,9.0,67,0.00,,SCT220,0.00,VWS V14.00,2013-07-24 16:18:00,
2013-07-24 12:23:00,65.6,54.0,30.02,NE,37,0.0,9.0,66,0.00,,SCT220,0.00,VWS V14.00,2013-07-24 16:23:00,
2013-07-24 12:28:00,65.7,52.8,30.02,ENE,68,1.0,9.0,63,0.00,,SCT220,0.00,VWS V14.00,2013-07-24 16:28:00,
2013-07-24 12:30:00,62.8,52.5,30.02,NE,39,2.0,8.0,69,0.00,,OVC120,0.00,VWS V14.00,2013-07-24 16:30:00,
2013-07-24 12:33:00,65.8,54.1,30.01,ESE,123,0.0,3.0,66,0.00,,SCT220,0.00,VWS V14.00,2013-07-24 16:33:00,
2013-07-24 12:38:00,66.3,53.8,30.01,South,173,0.0,6.0,64,0.00,,SCT220,0.00,VWS V14.00,2013-07-24 16:38:00,
2013-07-24 12:43:00,66.3,53.8,30.01,North,9,3.0,9.0,64,0.00,,SCT220,0.00,VWS V14.00,2013-07-24 16:43:00,
2013-07-24 12:48:00,66.1,53.6,30.02,ENE,69,4.0,9.0,64,0.00,,SCT220,0.00,VWS V14.00,2013-07-24 16:48:00,
2013-07-24 12:53:00,65.9,52.5,30.01,North,5,0.0,9.0,62,0.00,,SCT220,0.00,VWS V14.00,2013-07-24 16:53:00,
2013-07-24 12:58:00,66.1,53.6,30.01,North,5,3.0,9.0,64,0.00,,SCT220,0.00,VWS V14.00,2013-07-24 16:58:00,
2013-07-24 13:00:00,64.5,53.3,30.02,NNE,13,3.0,12.0,67,0.00,,OVC120,0.00,VWS V14.00,2013-07-24 17:00:00,
2013-07-24 13:03:00,66.5,54.8,30.01,NNE,33,3.0,7.0,66,0.00,,SCT220,0.00,VWS V14.00,2013-07-24 17:03:00,
2013-07-24 13:09:00,66.9,53.5,30.01,ENE,74,1.0,7.0,62,0.00,,SCT220,0.00,VWS V14.00,2013-07-24 17:09:00,
2013-07-24 13:14:00,67.2,54.2,30.01,ESE,123,2.0,7.0,63,0.00,,SCT220,0.00,VWS V14.00,2013-07-24 17:14:00,
2013-07-24 13:19:00,67.2,52.4,30.01,ENE,74,0.0,8.0,59,0.00,,SCT220,0.00,VWS V14.00,2013-07-24 17:19:00,
2013-07-24 13:24:00,67.2,53.8,30.01,SE,131,3.0,8.0,62,0.00,,SCT220,0.00,VWS V14.00,2013-07-24 17:24:00,
2013-07-24 13:29:00,67.6,52.3,30.01,NE,56,1.0,9.0,58,0.00,,SCT220,0.00,VWS V14.00,2013-07-24 17:29:00,
2013-07-24 13:30:00,65.7,52.8,30.02,SE,125,1.0,9.0,63,0.00,,OVC120,0.00,VWS V14.00,2013-07-24 17:30:00,
2013-07-24 13:34:00,67.5,52.7,30.01,NNE,26,4.0,7.0,59,0.00,,SCT220,0.00,VWS V14.00,2013-07-24 17:34:00,
2013-07-24 13:39:00,67.1,52.3,30.01,NNE,25,0.0,7.0,59,0.00,,SCT220,0.00,VWS V14.00,2013-07-24 17:39:00,
2013-07-24 13:44:00,67.4,54.4,30.01,NE,41,3.0,7.0,63,0.00,,SCT220,0.00,VWS V14.00,2013-07-24 17:44:00,
2013-07-24 13:49:00,68.0,54.5,30.01,NE,42,2.0,7.0,62,0.00,,SCT220,0.00,VWS V14.00,2013-07-24 17:49:00,
2013-07-24 13:54:00,68.5,54.5,30.01,SE,141,2.0,7.0,61,0.00,,SCT220,0.00,VWS V14.00,2013-07-24 17:54:00,
2013-07-24 13:59:00,68.9,53.5,30.01,NE,55,5.0,7.0,58,0.00,,SCT220,0.00,VWS V14.00,2013-07-24 17:59:00,
2013-07-24 14:00:00,66.2,53.2,30.02,North,350,2.0,9.0,63,0.00,,OVC120,0.00,VWS V14.00,2013-07-24 18:00:00,
2013-07-24 14:04:00,69.2,52.8,30.01,NNE,29,0.0,4.0,56,0.00,,BKN220,0.00,VWS V14.00,2013-07-24 18:04:00,
2013-07-24 14:09:00,69.5,55.0,30.01,ENE,74,0.0,7.0,60,0.00,,BKN220,0.00,VWS V14.00,2013-07-24 18:09:00,
2013-07-24 14:14:00,69.7,53.3,30.01,ENE,61,2.0,7.0,56,0.00,,BKN220,0.00,VWS V14.00,2013-07-24 18:14:00,
2013-07-24 14:19:00,69.5,54.6,30.01,ENE,65,3.0,7.0,59,0.00,,BKN220,0.00,VWS V14.00,2013-07-24 18:19:00,
2013-07-24 14:24:00,69.4,53.0,30.01,North,360,6.0,7.0,56,0.00,,BKN220,0.00,VWS V14.00,2013-07-24 18:24:00,
2013-07-24 14:29:00,69.2,54.3,30.00,NE,38,4.0,7.0,59,0.00,,BKN220,0.00,VWS V14.00,2013-07-24 18:29:00,
2013-07-24 14:30:00,67.6,52.8,30.01,NE,36,3.0,9.0,59,0.00,,OVC120,0.00,VWS V14.00,2013-07-24 18:30:00,
2013-07-24 14:34:00,69.3,52.0,30.00,South,180,2.0,7.0,54,0.00,,BKN220,0.00,VWS V14.00,2013-07-24 18:34:00,
2013-07-24 14:40:00,69.6,53.2,30.00,ENE,71,0.0,7.0,56,0.00,,BKN220,0.00,VWS V14.00,2013-07-24 18:40:00,
2013-07-24 14:45:00,69.7,52.8,30.00,East,94,0.0,8.0,55,0.00,,BKN220,0.00,VWS V14.00,2013-07-24 18:45:00,
2013-07-24 14:50:00,70.2,52.8,30.00,NE,55,0.0,8.0,54,0.00,,BKN220,0.00,VWS V14.00,2013-07-24 18:50:00,
2013-07-24 14:55:00,70.4,54.0,30.00,NE,34,5.0,8.0,56,0.00,,BKN220,0.00,VWS V14.00,2013-07-24 18:55:00,
2013-07-24 15:00:00,70.4,55.4,30.00,East,98,5.0,8.0,59,0.00,,BKN220,0.00,VWS V14.00,2013-07-24 19:00:00,
2013-07-24 15:05:00,70.3,53.9,30.00,East,90,2.0,6.0,56,0.00,,BKN220,0.00,VWS V14.00,2013-07-24 19:05:00,
2013-07-24 15:10:00,70.7,54.7,30.00,North,9,4.0,6.0,57,0.00,,BKN220,0.00,VWS V14.00,2013-07-24 19:10:00,
2013-07-24 15:15:00,70.3,52.9,30.00,NE,38,0.0,6.0,54,0.00,,BKN220,0.00,VWS V14.00,2013-07-24 19:15:00,
2013-07-24 15:20:00,69.9,53.0,30.00,East,79,0.0,7.0,55,0.00,,BKN220,0.00,VWS V14.00,2013-07-24 19:20:00,
2013-07-24 15:25:00,69.9,52.5,30.00,ENE,69,3.0,7.0,54,0.00,,BKN220,0.00,VWS V14.00,2013-07-24 19:25:00,
2013-07-24 15:30:00,70.2,53.3,30.00,NE,44,0.0,0.0,55,0.00,,BKN220,0.00,VWS V14.00,2013-07-24 19:30:00,
2013-07-24 15:35:00,70.7,55.2,30.00,East,101,1.0,7.0,58,0.00,,BKN220,0.00,VWS V14.00,2013-07-24 19:35:00,
2013-07-24 15:40:00,71.0,56.0,29.99,NE,42,0.0,7.0,59,0.00,,BKN220,0.00,VWS V14.00,2013-07-24 19:40:00,
2013-07-24 15:45:00,70.9,54.4,29.99,ENE,71,0.0,7.0,56,0.00,,BKN220,0.00,VWS V14.00,2013-07-24 19:45:00,
2013-07-24 15:50:00,70.9,54.0,29.99,ENE,65,2.0,7.0,55,0.00,,BKN220,0.00,VWS V14.00,2013-07-24 19:50:00,
2013-07-24 15:55:00,71.1,53.6,29.99,NNE,26,3.0,7.0,54,0.00,,BKN220,0.00,VWS V14.00,2013-07-24 19:55:00,
2013-07-24 16:00:00,70.8,51.8,29.99,East,94,0.0,0.0,51,0.00,,BKN220,0.00,VWS V14.00,2013-07-24 20:00:00,
2013-07-24 16:06:00,70.6,53.2,29.99,ESE,110,0.0,5.0,54,0.00,,BKN220,0.00,VWS V14.00,2013-07-24 20:06:00,
2013-07-24 16:11:00,71.3,53.8,29.99,NNE,32,6.0,6.0,54,0.00,,BKN220,0.00,VWS V14.00,2013-07-24 20:11:00,
2013-07-24 16:16:00,71.3,53.3,29.99,SE,132,0.0,6.0,53,0.00,,BKN220,0.00,VWS V14.00,2013-07-24 20:16:00,
2013-07-24 16:21:00,71.3,53.3,29.99,SE,134,0.0,6.0,53,0.00,,BKN220,0.00,VWS V14.00,2013-07-24 20:21:00,
2013-07-24 16:26:00,71.7,53.7,29.99,SSE,167,2.0,6.0,53,0.00,,BKN220,0.00,VWS V14.00,2013-07-24 20:26:00,
2013-07-24 16:30:00,70.2,51.8,30.00,NE,44,0.0,7.0,52,0.00,,OVC120,0.00,VWS V14.00,2013-07-24 20:30:00,
2013-07-24 16:31:00,71.5,53.0,29.99,South,173,1.0,5.0,52,0.00,,BKN220,0.00,VWS V14.00,2013-07-24 20:31:00,
2013-07-24 16:36:00,71.4,55.4,29.99,North,5,5.0,5.0,57,0.00,,BKN220,0.00,VWS V14.00,2013-07-24 20:36:00,
2013-07-24 16:41:00,71.7,55.2,29.99,ENE,57,0.0,5.0,56,0.00,,BKN220,0.00,VWS V14.00,2013-07-24 20:41:00,
2013-07-24 16:47:00,71.9,54.4,29.99,East,98,0.0,5.0,54,0.00,,BKN220,0.00,VWS V14.00,2013-07-24 20:47:00,
2013-07-24 16:52:00,72.2,55.7,29.99,ENE,71,2.0,5.0,56,0.00,,BKN220,0.00,VWS V14.00,2013-07-24 20:52:00,
2013-07-24 16:57:00,71.8,53.8,29.99,SE,126,0.0,5.0,53,0.00,,BKN220,0.00,VWS V14.00,2013-07-24 20:57:00,
2013-07-24 17:00:00,70.9,52.9,29.99,East,94,0.0,7.0,53,0.00,,OVC120,0.00,VWS V14.00,2013-07-24 21:00:00,
2013-07-24 17:02:00,71.4,54.4,29.99,SSW,194,0.0,5.0,55,0.00,,BKN220,0.00,VWS V14.00,2013-07-24 21:02:00,
2013-07-24 17:07:00,71.6,55.6,29.99,South,186,0.0,5.0,57,0.00,,BKN220,0.00,VWS V14.00,2013-07-24 21:07:00,
2013-07-24 17:12:00,72.1,54.6,29.99,South,173,0.0,5.0,54,0.00,,BKN220,0.00,VWS V14.00,2013-07-24 21:12:00,
2013-07-24 17:17:00,72.4,54.3,29.99,East,80,3.0,5.0,53,0.00,,BKN220,0.00,VWS V14.00,2013-07-24 21:17:00,
2013-07-24 17:22:00,72.3,52.1,29.99,East,84,0.0,6.0,49,0.00,,BKN220,0.00,VWS V14.00,2013-07-24 21:22:00,
2013-07-24 17:27:00,72.0,54.5,29.98,ENE,61,2.0,6.0,54,0.00,,BKN220,0.00,VWS V14.00,2013-07-24 21:27:00,
2013-07-24 17:30:00,71.6,54.1,29.99,South,177,3.0,6.0,54,0.00,,OVC120,0.00,VWS V14.00,2013-07-24 21:30:00,
2013-07-24 17:32:00,71.9,55.9,29.98,East,95,0.0,2.0,57,0.00,,BKN220,0.00,VWS V14.00,2013-07-24 21:32:00,
2013-07-24 17:37:00,72.1,55.1,29.98,ESE,109,0.0,5.0,55,0.00,,BKN220,0.00,VWS V14.00,2013-07-24 21:37:00,
2013-07-24 17:42:00,72.2,54.1,29.98,ESE,123,0.0,5.0,53,0.00,,BKN220,0.00,VWS V14.00,2013-07-24 21:42:00,
2013-07-24 17:47:00,72.1,54.0,29.98,ESE,120,0.0,5.0,53,0.00,,BKN220,0.00,VWS V14.00,2013-07-24 21:47:00,
2013-07-24 17:53:00,72.0,54.5,29.98,East,81,2.0,5.0,54,0.00,,BKN220,0.00,VWS V14.00,2013-07-24 21:53:00,
2013-07-24 17:58:00,71.9,54.4,29.98,ENE,71,1.0,5.0,54,0.00,,BKN220,0.00,VWS V14.00,2013-07-24 21:58:00,
2013-07-24 18:00:00,71.5,54.0,29.99,SE,127,0.0,5.0,54,0.00,,OVC120,0.00,VWS V14.00,2013-07-24 22:00:00,
2013-07-24 18:03:00,72.2,56.1,29.98,ENE,63,0.0,1.0,57,0.00,,BKN220,0.00,VWS V14.00,2013-07-24 22:03:00,
2013-07-24 18:08:00,72.1,54.0,29.98,ENE,63,0.0,3.0,53,0.00,,BKN220,0.00,VWS V14.00,2013-07-24 22:08:00,
2013-07-24 18:13:00,71.9,53.3,29.98,ENE,63,0.0,3.0,52,0.00,,BKN220,0.00,VWS V14.00,2013-07-24 22:13:00,
2013-07-24 18:18:00,71.9,54.4,29.98,ENE,63,1.0,3.0,54,0.00,,BKN220,0.00,VWS V14.00,2013-07-24 22:18:00,
2013-07-24 18:23:00,71.8,53.2,29.98,ENE,65,0.0,3.0,52,0.00,,BKN220,0.00,VWS V14.00,2013-07-24 22:23:00,
2013-07-24 18:28:00,71.8,52.7,29.98,ENE,65,0.0,3.0,51,0.00,,BKN220,0.00,VWS V14.00,2013-07-24 22:28:00,
2013-07-24 18:30:00,71.9,54.9,29.98,East,101,1.0,6.0,55,0.00,,OVC120,0.00,VWS V14.00,2013-07-24 22:30:00,
2013-07-24 18:33:00,72.2,53.1,29.98,ENE,65,0.0,2.0,51,0.00,,BKN220,0.00,VWS V14.00,2013-07-24 22:33:00,
2013-07-24 18:38:00,72.3,53.7,29.98,ENE,65,0.0,2.0,52,0.00,,BKN220,0.00,VWS V14.00,2013-07-24 22:38:00,
2013-07-24 18:43:00,72.2,54.7,29.98,ENE,65,1.0,2.0,54,0.00,,BKN220,0.00,VWS V14.00,2013-07-24 22:43:00,
2013-07-24 18:48:00,71.9,52.3,29.98,ENE,65,0.0,2.0,50,0.00,,BKN220,0.00,VWS V14.00,2013-07-24 22:48:00,
2013-07-24 18:54:00,72.2,52.5,29.98,ENE,65,0.0,2.0,50,0.00,,BKN220,0.00,VWS V14.00,2013-07-24 22:54:00,
2013-07-24 18:59:00,72.6,53.5,29.98,ENE,65,0.0,2.0,51,0.00,,BKN220,0.00,VWS V14.00,2013-07-24 22:59:00,
2013-07-24 19:00:00,72.0,53.4,29.98,ENE,63,0.0,5.0,52,0.00,,OVC120,0.00,VWS V14.00,2013-07-24 23:00:00,
2013-07-24 19:04:00,72.5,52.8,29.98,ENE,65,1.0,1.0,50,0.00,,BKN220,0.00,VWS V14.00,2013-07-24 23:04:00,
2013-07-24 19:09:00,72.4,54.3,29.98,ENE,65,0.0,1.0,53,0.00,,BKN220,0.00,VWS V14.00,2013-07-24 23:09:00,
2013-07-24 19:14:00,72.4,53.8,29.98,ENE,65,0.0,1.0,52,0.00,,BKN220,0.00,VWS V14.00,2013-07-24 23:14:00,
2013-07-24 19:19:00,72.3,53.2,29.98,ENE,65,0.0,1.0,51,0.00,,BKN220,0.00,VWS V14.00,2013-07-24 23:19:00,
2013-07-24 19:24:00,71.9,53.3,29.98,ENE,65,0.0,1.0,52,0.00,,BKN220,0.00,VWS V14.00,2013-07-24 23:24:00,
2013-07-24 19:29:00,71.2,53.7,29.98,ENE,65,0.0,2.0,54,0.00,,BKN220,0.00,VWS V14.00,2013-07-24 23:29:00,
2013-07-24 19:30:00,71.9,53.9,29.98,ENE,65,0.0,3.0,53,0.00,,OVC120,0.00,VWS V14.00,2013-07-24 23:30:00,
2013-07-24 19:34:00,70.7,54.2,29.98,ENE,65,0.0,1.0,56,0.00,,BKN220,0.00,VWS V14.00,2013-07-24 23:34:00,
2013-07-24 19:39:00,70.3,53.4,29.98,ENE,65,0.0,1.0,55,0.00,,BKN220,0.00,VWS V14.00,2013-07-24 23:39:00,
2013-07-24 19:44:00,69.8,54.4,29.98,ESE,109,0.0,1.0,58,0.00,,BKN220,0.00,VWS V14.00,2013-07-24 23:44:00,
2013-07-24 19:49:00,69.3,53.0,29.98,ESE,109,0.0,1.0,56,0.00,,BKN220,0.00,VWS V14.00,2013-07-24 23:49:00,
2013-07-24 19:54:00,68.8,53.4,29.98,ESE,109,0.0,1.0,58,0.00,,BKN220,0.00,VWS V14.00,2013-07-24 23:54:00,
2013-07-24 19:59:00,68.3,55.2,29.99,ESE,109,0.0,1.0,63,0.00,,BKN220,0.00,VWS V14.00,2013-07-24 23:59:00,
2013-07-24 20:00:00,72.7,54.1,29.98,ENE,65,0.0,2.0,52,0.00,,OVC120,0.00,VWS V14.00,2013-07-25 00:00:00,
2013-07-24 20:04:00,67.5,54.5,29.99,ESE,109,0.0,0.0,63,0.00,,BKN220,0.00,VWS V14.00,2013-07-25 00:04:00,
2013-07-24 20:09:00,66.8,55.1,29.99,SE,138,0.0,0.0,66,0.00,,BKN220,0.00,VWS V14.00,2013-07-25 00:09:00,
2013-07-24 20:14:00,66.0,55.2,29.99,SE,139,0.0,1.0,68,0.00,,BKN220,0.00,VWS V14.00,2013-07-25 00:14:00,
2013-07-24 20:16:00,65.8,55.4,29.99,SE,139,0.0,1.0,69,0.00,,BKN220,0.00,VWS V14.00,2013-07-25 00:16:00,
2013-07-24 20:21:00,65.4,55.8,29.99,SE,138,0.0,1.0,71,0.00,,BKN220,0.00,VWS V14.00,2013-07-25 00:21:00,
2013-07-24 20:26:00,65.0,56.9,29.99,SE,139,0.0,1.0,75,0.00,,BKN220,0.00,VWS V14.00,2013-07-25 00:26:00,
2013-07-24 20:30:00,71.2,53.7,29.98,ENE,65,0.0,2.0,54,0.00,,OVC120,0.00,VWS V14.00,2013-07-25 00:30:00,
2013-07-24 20:32:00,64.5,56.4,29.99,SE,139,0.0,0.0,75,0.00,,BKN220,0.00,VWS V14.00,2013-07-25 00:32:00,
2013-07-24 20:37:00,64.3,56.2,29.99,SE,139,0.0,0.0,75,0.00,,BKN220,0.00,VWS V14.00,2013-07-25 00:37:00,
2013-07-24 20:42:00,64.1,56.8,29.99,SE,139,0.0,0.0,77,0.00,,BKN220,0.00,VWS V14.00,2013-07-25 00:42:00,
2013-07-24 20:47:00,63.8,56.8,29.99,SE,139,0.0,0.0,78,0.00,,BKN220,0.00,VWS V14.00,2013-07-25 00:47:00,
2013-07-24 20:52:00,63.5,56.5,29.99,SE,138,0.0,0.0,78,0.00,,BKN220,0.00,VWS V14.00,2013-07-25 00:52:00,
2013-07-24 20:57:00,63.3,56.7,30.00,SE,139,0.0,0.0,79,0.00,,BKN220,0.00,VWS V14.00,2013-07-25 00:57:00,
2013-07-24 21:00:00,68.2,55.1,29.99,ESE,109,0.0,1.0,63,0.00,,OVC120,0.00,VWS V14.00,2013-07-25 01:00:00,
2013-07-24 21:02:00,63.0,56.4,30.00,SE,139,0.0,0.0,79,0.00,,BKN220,0.00,VWS V14.00,2013-07-25 01:02:00,
2013-07-24 21:07:00,62.6,55.7,30.00,SE,139,0.0,0.0,78,0.00,,BKN220,0.00,VWS V14.00,2013-07-25 01:07:00,
2013-07-24 21:12:00,62.2,56.0,30.00,SE,139,0.0,0.0,80,0.00,,BKN220,0.00,VWS V14.00,2013-07-25 01:12:00,
2013-07-24 21:17:00,61.8,55.9,30.00,SE,139,0.0,0.0,81,0.00,,BKN220,0.00,VWS V14.00,2013-07-25 01:17:00,
2013-07-24 21:22:00,61.4,55.5,30.00,SE,139,0.0,0.0,81,0.00,,BKN220,0.00,VWS V14.00,2013-07-25 01:22:00,
2013-07-24 21:27:00,61.0,55.5,30.00,SE,139,0.0,0.0,82,0.00,,BKN220,0.00,VWS V14.00,2013-07-25 01:27:00,
2013-07-24 21:30:00,64.7,56.6,29.99,SE,139,0.0,1.0,75,0.00,,OVC120,0.00,VWS V14.00,2013-07-25 01:30:00,
2013-07-24 21:32:00,60.6,55.8,30.00,SE,138,0.0,0.0,84,0.00,,BKN220,0.00,VWS V14.00,2013-07-25 01:32:00,
2013-07-24 21:37:00,60.2,55.7,30.00,SE,138,0.0,0.0,85,0.00,,BKN220,0.00,VWS V14.00,2013-07-25 01:37:00,
2013-07-24 21:42:00,59.9,55.7,30.00,SE,138,0.0,0.0,86,0.00,,BKN220,0.00,VWS V14.00,2013-07-25 01:42:00,
2013-07-24 21:47:00,59.4,55.2,30.00,SE,139,0.0,0.0,86,0.00,,BKN220,0.00,VWS V14.00,2013-07-25 01:47:00,
2013-07-24 21:53:00,59.0,55.1,30.00,SE,138,0.0,0.0,87,0.00,,BKN220,0.00,VWS V14.00,2013-07-25 01:53:00,
2013-07-24 21:58:00,58.6,55.1,30.00,SE,139,0.0,0.0,88,0.00,,BKN220,0.00,VWS V14.00,2013-07-25 01:58:00,
2013-07-24 22:00:00,63.1,56.8,30.00,SE,139,0.0,0.0,80,0.00,,OVC120,0.00,VWS V14.00,2013-07-25 02:00:00,
2013-07-24 22:03:00,58.2,55.0,30.00,SE,139,0.0,0.0,89,0.00,,BKN220,0.00,VWS V14.00,2013-07-25 02:03:00,
2013-07-24 22:08:00,58.0,54.8,30.01,SE,139,0.0,0.0,89,0.00,,BKN220,0.00,VWS V14.00,2013-07-25 02:08:00,
2013-07-24 22:13:00,57.7,54.8,30.01,SE,139,0.0,0.0,90,0.00,,BKN220,0.00,VWS V14.00,2013-07-25 02:13:00,
2013-07-24 22:18:00,57.4,54.5,30.01,SE,139,0.0,0.0,90,0.00,,BKN220,0.00,VWS V14.00,2013-07-25 02:18:00,
2013-07-24 22:23:00,57.2,54.6,30.01,SE,139,0.0,0.0,91,0.00,,BKN220,0.00,VWS V14.00,2013-07-25 02:23:00,
2013-07-24 22:28:00,57.1,54.8,30.01,SE,139,0.0,0.0,92,0.00,,BKN220,0.00,VWS V14.00,2013-07-25 02:28:00,
2013-07-24 22:30:00,60.8,55.6,30.00,SE,138,0.0,0.0,83,0.00,,OVC120,0.00,VWS V14.00,2013-07-25 02:30:00,
2013-07-24 22:33:00,56.9,54.6,30.01,SE,139,0.0,0.0,92,0.00,,BKN220,0.00,VWS V14.00,2013-07-25 02:33:00,
2013-07-24 22:38:00,56.7,54.4,30.01,SE,139,0.0,0.0,92,0.00,,BKN220,0.00,VWS V14.00,2013-07-25 02:38:00,
2013-07-24 22:43:00,56.5,54.2,30.01,SE,139,0.0,0.0,92,0.00,,BKN220,0.00,VWS V14.00,2013-07-25 02:43:00,
2013-07-24 22:48:00,56.2,53.9,30.01,SE,139,0.0,0.0,92,0.00,,BKN220,0.00,VWS V14.00,2013-07-25 02:48:00,
2013-07-24 22:53:00,56.2,54.2,30.01,SE,139,0.0,0.0,93,0.00,,BKN220,0.00,VWS V14.00,2013-07-25 02:53:00,
2013-07-24 22:58:00,56.1,54.4,30.02,SE,138,0.0,0.0,94,0.00,,BKN220,0.00,VWS V14.00,2013-07-25 02:58:00,
2013-07-24 23:00:00,58.4,54.9,30.00,SE,139,0.0,0.0,88,0.00,,OVC120,0.00,VWS V14.00,2013-07-25 03:00:00,
2013-07-24 23:03:00,55.9,53.9,30.02,SE,139,0.0,0.0,93,0.00,,FEW060,0.00,VWS V14.00,2013-07-25 03:03:00,
2013-07-24 23:09:00,55.6,53.9,30.02,SE,139,0.0,0.0,94,0.00,,FEW060,0.00,VWS V14.00,2013-07-25 03:09:00,
2013-07-24 23:14:00,55.5,53.8,30.01,SE,139,0.0,0.0,94,0.00,,FEW060,0.00,VWS V14.00,2013-07-25 03:14:00,
2013-07-24 23:20:00,55.2,53.5,30.01,SE,139,0.0,0.0,94,0.00,,FEW060,0.00,VWS V14.00,2013-07-25 03:20:00,
2013-07-24 23:25:00,55.0,53.3,30.01,SE,138,0.0,0.0,94,0.00,,FEW060,0.00,VWS V14.00,2013-07-25 03:25:00,
2013-07-24 23:30:00,57.1,54.8,30.01,SE,138,0.0,0.0,92,0.00,,OVC120,0.00,VWS V14.00,2013-07-25 03:30:00,
2013-07-24 23:31:00,54.6,52.9,30.02,SE,138,0.0,0.0,94,0.00,,FEW060,0.00,VWS V14.00,2013-07-25 03:31:00,
2013-07-24 23:36:00,54.4,53.0,30.01,SE,138,0.0,0.0,95,0.00,,FEW060,0.00,VWS V14.00,2013-07-25 03:36:00,
2013-07-24 23:41:00,54.3,52.9,30.02,SE,139,0.0,0.0,95,0.00,,FEW060,0.00,VWS V14.00,2013-07-25 03:41:00,
2013-07-24 23:46:00,54.5,53.1,30.01,SE,138,0.0,0.0,95,0.00,,FEW060,0.00,VWS V14.00,2013-07-25 03:46:00,
2013-07-24 23:52:00,54.4,53.0,30.01,SE,139,0.0,0.0,95,0.00,,FEW060,0.00,VWS V14.00,2013-07-25 03:52:00,
2013-07-24 23:57:00,54.2,52.8,30.02,SE,138,0.0,0.0,95,0.00,,FEW060,0.00,VWS V14.00,2013-07-25 03:57:00,